CheckWX is a tool to help pilots better visualize weather data.  It is not intended as a substitute for an official pre-flight weather briefing.

01:58:01 UTC

PAMR METAR
Merrill Field Airport
Anchorage, Alaska, USA
Current

1 hour ago

PAMR 220053Z 00000KT 1SM -SN OVC025 M08/M11 A2949 RMK AO2 SLP989 P0000 T10831111 $
Observed
Jan-22 @ 00:53 UTC
Visibility
1 SM
Flight Rules
IFR
Conditions
Light Snow
Cloud Levels
  • Overcast at 2,500' AGL
Temperature
-8°C / 18°F
Dewpoint
-11°C / 12°F
Humidity
79%
Altimeter
29.49" Hg
Pressure
998.62 hPa
Current Rain
0.01"
Previous

1 hour ago

PAMR 220044Z 00000KT 1SM -SN OVC029 M08/M11 A2949 RMK AO2 P0000 T10831111 $
Observed
Jan-22 @ 00:44 UTC
Visibility
1 SM
Flight Rules
IFR
Conditions
Light Snow
Cloud Levels
  • Overcast at 2,900' AGL
Temperature
-8°C / 18°F
Dewpoint
-11°C / 12°F
Humidity
79%
Altimeter
29.49" Hg
Pressure
998.62 hPa
Current Rain
0.01"
Previous

2 hours ago

PAMR 220024Z 31003KT 2 1/2SM -SN FEW022 SCT027 OVC036 M08/M11 A2949 RMK AO2 P0000 T10831111 $
Observed
Jan-22 @ 00:24 UTC
Wind
  • 310° at 3 KTS
Visibility
2 1/2 SM
Flight Rules
IFR
Conditions
Light Snow
Cloud Levels
  • Few at 2,200' AGL
  • Scattered at 2,700' AGL
  • Overcast at 3,600' AGL
Temperature
-8°C / 18°F
Dewpoint
-11°C / 12°F
Humidity
79%
Altimeter
29.49" Hg
Pressure
998.62 hPa
Current Rain
0.01"